Time;durP1;ratioP1;P1;durP2;ratioP2;P2;SDS_P1;SDS_P2;PMS_P1;PMS_P2;Temp;Humidity;BMP_temperature;BMP_pressure;BME280_temperature;BME280_humidity;BME280_pressure;Samples;Min_cycle;Max_cycle;Signal;HPM_P1;HPM_P2
2023/01/14 00:00:26;;;;;;;17.60;3.47;;;;;;;6.68;89.74;101420.41;4996635;28;20029;-67
2023/01/14 00:02:52;;;;;;;17.70;3.50;;;;;;;6.64;89.92;101421.19;4996679;28;20024;-68
2023/01/14 00:05:17;;;;;;;17.45;3.90;;;;;;;6.59;89.45;101420.97;4996664;28;20026;-68
2023/01/14 00:07:43;;;;;;;18.92;4.00;;;;;;;6.55;90.19;101426.97;4979261;28;20105;-67
2023/01/14 00:10:09;;;;;;;16.83;3.83;;;;;;;6.48;90.00;101435.47;4996420;28;20026;-68
2023/01/14 00:12:34;;;;;;;21.38;3.97;;;;;;;6.45;89.94;101443.22;4996687;28;20058;-67
2023/01/14 00:15:00;;;;;;;13.63;3.25;;;;;;;6.41;90.40;101444.84;4996585;28;20026;-68
2023/01/14 00:17:25;;;;;;;15.73;3.75;;;;;;;6.40;90.67;101450.03;4996183;28;20033;-67
2023/01/14 00:19:51;;;;;;;20.02;3.72;;;;;;;6.35;90.36;101451.59;4996103;28;20547;-67
2023/01/14 00:22:16;;;;;;;15.93;3.25;;;;;;;6.32;90.58;101448.84;4996427;28;20037;-67
2023/01/14 00:24:42;;;;;;;21.83;3.80;;;;;;;6.28;91.30;101453.09;4996646;28;20023;-67
2023/01/14 00:27:07;;;;;;;21.10;3.40;;;;;;;6.25;90.74;101450.34;4996296;28;20484;-68
2023/01/14 00:29:34;;;;;;;16.15;4.00;;;;;;;6.21;91.26;101454.59;4996186;28;20037;-67
2023/01/14 00:32:05;;;;;;;21.38;4.15;;;;;;;6.19;90.47;101450.13;4996150;28;20030;-67
2023/01/14 00:34:33;;;;;;;23.13;3.97;;;;;;;6.18;91.00;101445.72;4996146;28;20037;-68
2023/01/14 00:36:58;;;;;;;19.30;3.78;;;;;;;6.16;91.46;101445.63;4995896;28;20133;-67
2023/01/14 00:39:25;;;;;;;22.30;4.53;;;;;;;6.15;90.96;101441.22;4995900;28;20534;-68
2023/01/14 00:41:51;;;;;;;22.60;4.07;;;;;;;6.13;91.57;101439.41;4995996;28;20030;-67
2023/01/14 00:44:19;;;;;;;21.80;3.92;;;;;;;6.09;91.30;101448.00;4996136;28;20090;-68
2023/01/14 00:46:45;;;;;;;19.92;3.75;;;;;;;6.08;91.32;101447.09;4995848;28;20045;-67
2023/01/14 00:49:16;;;;;;;19.48;3.58;;;;;;;6.05;91.47;101448.72;4995873;28;20488;-67
2023/01/14 00:51:42;;;;;;;22.30;4.40;;;;;;;5.99;91.88;101439.75;4996030;28;20073;-68
2023/01/14 00:54:07;;;;;;;23.05;4.03;;;;;;;6.01;92.02;101445.06;4978332;28;20065;-67
2023/01/14 00:56:32;;;;;;;20.17;3.83;;;;;;;5.98;92.28;101442.31;4995772;28;20038;-67
2023/01/14 00:58:58;;;;;;;24.40;4.22;;;;;;;5.98;92.28;101437.97;4995545;28;20547;-67
2023/01/14 01:01:24;;;;;;;14.30;3.50;;;;;;;5.94;92.63;101449.16;4995866;28;20025;-67
2023/01/14 01:03:52;;;;;;;19.83;4.13;;;;;;;5.96;92.97;101449.25;4995437;28;20057;-67
2023/01/14 01:06:19;;;;;;;23.35;4.10;;;;;;;5.94;93.08;101449.16;4978045;28;20066;-67
2023/01/14 01:08:45;;;;;;;24.58;3.90;;;;;;;5.93;93.83;101446.50;4995389;28;20038;-67
2023/01/14 01:11:11;;;;;;;20.83;3.72;;;;;;;5.95;93.77;101445.72;4995195;28;20030;-67
2023/01/14 01:13:38;;;;;;;29.13;4.60;;;;;;;5.95;93.81;101456.22;4995501;28;20030;-67
2023/01/14 01:16:15;;;;;;;29.10;4.70;;;;;;;5.95;94.15;101453.59;4995558;28;20018;-67
2023/01/14 01:18:42;;;;;;;24.75;4.45;;;;;;;5.95;94.72;101447.44;4977813;28;20088;-67
2023/01/14 01:21:14;;;;;;;29.17;4.65;;;;;;;5.94;94.33;101451.78;4995506;28;20034;-68
2023/01/14 01:23:40;;;;;;;27.48;4.22;;;;;;;5.92;94.55;101457.81;4995380;28;20053;-67
2023/01/14 01:26:09;;;;;;;27.50;4.18;;;;;;;5.90;94.92;101448.94;4995394;28;20472;-67
2023/01/14 01:28:35;;;;;;;29.80;4.82;;;;;;;5.86;94.90;101442.69;4995038;28;20472;-67
2023/01/14 01:31:02;;;;;;;27.98;4.57;;;;;;;5.84;95.32;101435.63;4995025;28;20033;-67
2023/01/14 01:33:29;;;;;;;29.67;4.75;;;;;;;5.82;95.33;101438.16;4994874;28;20515;-67
2023/01/14 01:36:03;;;;;;;23.23;4.05;;;;;;;5.83;94.84;101441.69;4994987;28;20030;-67
2023/01/14 01:38:29;;;;;;;22.90;4.53;;;;;;;5.83;95.22;101444.31;4994823;28;20046;-67
2023/01/14 01:40:55;;;;;;;27.40;4.57;;;;;;;5.80;95.20;101438.94;4994720;28;20022;-68
2023/01/14 01:43:24;;;;;;;27.92;4.75;;;;;;;5.82;95.46;101435.53;4994743;28;20503;-67
2023/01/14 01:45:51;;;;;;;25.10;4.15;;;;;;;5.82;95.45;101445.13;4994783;28;20074;-67
2023/01/14 01:48:31;;;;;;;31.00;4.72;;;;;;;5.72;95.67;101425.53;4994937;28;20130;-67
2023/01/14 01:51:09;;;;;;;30.75;4.85;;;;;;;5.80;95.41;101447.72;4994711;28;20042;-68
2023/01/14 01:53:38;;;;;;;21.38;4.05;;;;;;;5.77;95.93;101445.84;4994649;28;20089;-67
2023/01/14 01:56:06;;;;;;;29.63;4.70;;;;;;;5.75;96.13;101447.53;4994566;28;20030;-67
2023/01/14 01:58:32;;;;;;;25.10;4.40;;;;;;;5.74;95.93;101455.34;4994760;28;20026;-67
2023/01/14 02:00:58;;;;;;;26.23;4.22;;;;;;;5.72;96.19;101452.63;4994751;28;20014;-67
2023/01/14 02:03:39;;;;;;;31.70;4.18;;;;;;;5.70;96.33;101454.31;4994368;28;20451;-67
2023/01/14 02:06:06;;;;;;;26.55;4.43;;;;;;;5.69;96.61;101443.75;4994693;28;20026;-67
2023/01/14 02:08:33;;;;;;;34.25;4.85;;;;;;;5.69;96.70;101436.78;4994361;28;20031;-67
2023/01/14 02:11:27;;;;;;;28.45;4.60;;;;;;;5.68;96.89;101437.63;4994312;28;20081;-67
2023/01/14 02:14:10;;;;;;;29.05;4.30;;;;;;;5.67;97.23;101433.22;4994207;28;20030;-67
2023/01/14 02:16:51;;;;;;;23.70;4.05;;;;;;;5.64;97.41;101427.84;4994279;28;20521;-67
2023/01/14 02:19:40;;;;;;;26.67;4.40;;;;;;;5.61;97.03;101416.31;4994208;28;20539;-67
2023/01/14 02:22:35;;;;;;;31.25;4.60;;;;;;;5.62;97.15;101399.78;4994155;28;20030;-68
2023/01/14 02:25:30;;;;;;;29.65;4.80;;;;;;;5.58;97.76;101395.25;4994122;28;20031;-67
2023/01/14 02:28:12;;;;;;;29.98;5.18;;;;;;;5.58;97.84;101395.25;4994296;28;20034;-67
2023/01/14 02:30:51;;;;;;;28.55;4.85;;;;;;;5.57;98.29;101377.72;4993977;28;20044;-67
2023/01/14 02:33:23;;;;;;;25.08;4.40;;;;;;;5.55;98.21;101372.44;4994151;28;20126;-67
2023/01/14 02:36:31;;;;;;;29.58;5.15;;;;;;;5.55;98.63;101363.66;4993984;28;20026;-67
2023/01/14 02:39:04;;;;;;;28.17;4.93;;;;;;;5.54;98.19;101365.41;4982137;28;20054;-67
2023/01/14 02:44:36;;;;;;;27.77;4.63;;;;;;;5.48;98.64;101345.09;4994159;28;20066;-67
2023/01/14 02:47:19;;;;;;;23.52;4.60;;;;;;;5.49;99.02;101346.00;4994029;28;20072;-67
2023/01/14 02:49:49;;;;;;;28.17;4.15;;;;;;;5.48;99.54;101347.72;4993857;28;20128;-67
2023/01/14 02:52:17;;;;;;;30.40;4.65;;;;;;;5.49;99.52;101346.00;4993910;28;20026;-67
2023/01/14 02:54:55;;;;;;;25.40;4.30;;;;;;;5.51;99.97;101357.41;4993637;28;20061;-67
2023/01/14 02:57:53;;;;;;;30.58;4.00;;;;;;;5.49;99.47;101352.13;4992429;28;20057;-67
2023/01/14 03:00:30;;;;;;;31.10;4.93;;;;;;;5.48;99.84;101345.09;4993729;28;20026;-67
2023/01/14 03:02:55;;;;;;;25.40;4.18;;;;;;;5.47;100.00;101342.41;4993618;28;20112;-67
2023/01/14 03:05:50;;;;;;;28.83;4.35;;;;;;;5.46;100.00;101341.50;4993520;28;20488;-67
2023/01/14 03:08:37;;;;;;;24.20;4.47;;;;;;;5.48;100.00;101338.94;4993641;28;20523;-67
2023/01/14 03:11:05;;;;;;;31.80;4.40;;;;;;;5.47;100.00;101335.41;4993295;28;20041;-68
2023/01/14 03:13:39;;;;;;;30.77;5.35;;;;;;;5.46;100.00;101323.16;4993447;28;20026;-67
2023/01/14 03:16:12;;;;;;;30.38;4.30;;;;;;;5.48;100.00;101323.19;4993483;28;20093;-67
2023/01/14 03:18:47;;;;;;;29.98;4.95;;;;;;;5.49;100.00;101319.78;4993476;28;20026;-67
2023/01/14 03:21:18;;;;;;;26.55;5.30;;;;;;;5.49;100.00;101311.91;4993421;28;20022;-67
2023/01/14 03:24:00;;;;;;;27.25;5.60;;;;;;;5.53;100.00;101305.97;4975895;28;20019;-67
2023/01/14 03:26:31;;;;;;;36.10;4.65;;;;;;;5.53;100.00;101305.97;4993633;28;20049;-67
2023/01/14 03:29:00;;;;;;;23.80;4.35;;;;;;;5.52;100.00;101307.69;4976804;28;20034;-67
2023/01/14 03:31:28;;;;;;;23.80;4.00;;;;;;;5.53;100.00;101316.44;4993530;28;20089;-67
2023/01/14 03:34:10;;;;;;;27.20;4.40;;;;;;;5.54;100.00;101302.50;4993235;28;20034;-67
2023/01/14 03:36:37;;;;;;;30.45;4.90;;;;;;;5.53;100.00;101298.09;4993456;28;20109;-67
2023/01/14 03:39:10;;;;;;;26.85;4.35;;;;;;;5.55;100.00;101300.75;4975607;28;20499;-67
2023/01/14 03:44:29;;;;;;;26.70;3.78;;;;;;;5.60;100.00;101301.81;4993505;28;20463;-67
2023/01/14 03:46:55;;;;;;;20.95;4.18;;;;;;;5.62;100.00;101298.44;4993487;28;20069;-67
2023/01/14 03:49:22;;;;;;;32.40;4.47;;;;;;;5.64;100.00;101301.09;4993163;28;20424;-67
2023/01/14 03:52:15;;;;;;;25.95;4.22;;;;;;;5.64;100.00;101294.13;4993084;28;20042;-67
2023/01/14 03:55:01;;;;;;;20.50;3.83;;;;;;;5.68;100.00;101282.03;4996285;28;20427;-67
2023/01/14 03:57:32;;;;;;;26.48;4.18;;;;;;;5.70;100.00;101280.38;4996760;28;20018;-67
2023/01/14 04:00:01;;;;;;;36.88;4.40;;;;;;;5.68;100.00;101277.69;4997072;28;20026;-67
2023/01/14 04:02:29;;;;;;;23.55;3.95;;;;;;;5.73;100.00;101273.50;4996493;28;20022;-67
2023/01/14 04:04:55;;;;;;;20.95;3.70;;;;;;;5.75;100.00;101274.47;4979473;28;20026;-67
2023/01/14 04:07:22;;;;;;;24.08;4.18;;;;;;;5.78;100.00;101257.94;4996745;28;20031;-67
2023/01/14 04:09:47;;;;;;;27.10;4.30;;;;;;;5.76;100.00;101263.13;4996285;28;20026;-67
2023/01/14 04:12:13;;;;;;;20.63;3.55;;;;;;;5.78;100.00;101240.50;4996519;28;20033;-67
2023/01/14 04:17:22;;;;;;;19.95;3.80;;;;;;;5.81;100.00;101220.44;4996798;28;20558;-67
2023/01/14 04:19:47;;;;;;;29.27;4.55;;;;;;;5.78;100.00;101223.84;4996461;28;20030;-67
2023/01/14 04:22:13;;;;;;;25.67;3.33;;;;;;;5.82;100.00;101227.47;4996360;28;20018;-67
2023/01/14 04:24:38;;;;;;;17.95;3.15;;;;;;;5.80;100.00;101226.53;4996200;28;20025;-67
2023/01/14 04:27:05;;;;;;;28.58;4.30;;;;;;;5.81;100.00;101221.34;4996292;28;20058;-67
2023/01/14 04:29:31;;;;;;;29.55;4.35;;;;;;;5.78;100.00;101222.16;4996412;28;20034;-67
2023/01/14 04:31:56;;;;;;;26.17;4.18;;;;;;;5.78;100.00;101208.09;4996063;28;20027;-67
2023/01/14 04:34:21;;;;;;;24.45;4.00;;;;;;;5.77;100.00;101209.84;4996188;28;20034;-67
2023/01/14 04:36:47;;;;;;;24.65;4.10;;;;;;;5.75;100.00;101194.91;4996024;28;20030;-67
2023/01/14 04:39:12;;;;;;;23.85;4.18;;;;;;;5.74;100.00;101188.78;4995775;28;20046;-67
2023/01/14 04:44:21;;;;;;;27.90;3.38;;;;;;;5.68;100.00;101188.53;4996277;28;20041;-67
2023/01/14 04:46:47;;;;;;;22.83;3.78;;;;;;;5.67;100.00;101192.00;4995782;28;20391;-67
2023/01/14 04:49:12;;;;;;;20.15;4.25;;;;;;;5.67;100.00;101193.75;4995874;28;20023;-67
2023/01/14 04:51:37;;;;;;;26.83;3.83;;;;;;;5.64;100.00;101186.66;4995681;28;20027;-67
2023/01/14 04:54:03;;;;;;;33.78;4.38;;;;;;;5.68;100.00;101192.91;4995604;28;20512;-67
2023/01/14 04:56:28;;;;;;;29.80;4.93;;;;;;;5.65;100.00;101193.69;4995773;28;20032;-67
2023/01/14 04:58:54;;;;;;;24.90;4.63;;;;;;;5.67;100.00;101192.00;4995731;28;20018;-67
2023/01/14 05:01:19;;;;;;;24.23;3.88;;;;;;;5.67;100.00;101178.00;4978130;28;20046;-67
2023/01/14 05:03:44;;;;;;;14.80;3.75;;;;;;;5.66;100.00;101163.13;4995169;28;20428;-67
2023/01/14 05:06:10;;;;;;;25.52;4.57;;;;;;;5.64;100.00;101173.53;4995744;28;20061;-67
2023/01/14 05:08:35;;;;;;;19.17;3.00;;;;;;;5.68;100.00;101162.31;4995478;28;20029;-67
2023/01/14 05:11:00;;;;;;;17.77;3.85;;;;;;;5.68;100.00;101157.09;4995177;28;20058;-67
2023/01/14 05:13:26;;;;;;;24.75;4.35;;;;;;;5.70;100.00;101163.28;4995286;28;20030;-67
2023/01/14 05:15:51;;;;;;;18.80;3.90;;;;;;;5.70;100.00;101139.69;4995437;28;20030;-67
2023/01/14 05:18:17;;;;;;;24.35;4.13;;;;;;;5.69;100.00;101148.38;4995221;28;20026;-67
2023/01/14 05:20:43;;;;;;;19.08;3.30;;;;;;;5.69;100.00;101148.38;4995192;28;20396;-67
2023/01/14 05:23:12;;;;;;;22.63;3.42;;;;;;;5.71;100.00;101136.22;4995293;28;20384;-67
2023/01/14 05:25:37;;;;;;;18.27;3.65;;;;;;;5.74;100.00;101133.72;4995185;28;20026;-67
2023/01/14 05:28:07;;;;;;;24.63;4.00;;;;;;;5.76;100.00;101131.13;4995143;28;20034;-67
2023/01/14 05:30:33;;;;;;;24.25;3.95;;;;;;;5.75;99.99;101117.13;4994783;28;20042;-67
2023/01/14 05:32:58;;;;;;;20.10;3.40;;;;;;;5.77;99.75;101097.09;4995144;28;20086;-67
2023/01/14 05:35:24;;;;;;;16.65;3.35;;;;;;;5.78;99.56;101091.03;4995059;28;20035;-67
2023/01/14 05:37:51;;;;;;;21.42;4.05;;;;;;;5.79;99.94;101094.53;4994654;28;20059;-67
2023/01/14 05:40:16;;;;;;;18.27;3.38;;;;;;;5.81;99.85;101091.97;4994897;28;20034;-67
2023/01/14 05:45:41;;;;;;;26.00;3.78;;;;;;;5.88;99.27;101076.50;4995209;28;20104;-67
2023/01/14 05:48:09;;;;;;;16.27;3.45;;;;;;;5.86;98.73;101053.66;4994716;28;20575;-67
2023/01/14 05:50:36;;;;;;;13.15;3.20;;;;;;;5.86;99.23;101051.94;4994542;28;20507;-67
2023/01/14 05:53:02;;;;;;;18.02;3.20;;;;;;;5.88;99.46;101059.88;4994494;28;20488;-67
2023/01/14 05:55:27;;;;;;;19.70;3.28;;;;;;;5.89;98.89;101048.53;4994785;28;20031;-67
2023/01/14 05:57:55;;;;;;;29.02;4.45;;;;;;;5.91;98.58;101049.47;4994579;28;20037;-67
2023/01/14 06:08:32;;;;;;;19.48;3.75;;;;;;;6.00;97.48;101018.34;4994669;28;20190;-67
2023/01/14 06:10:59;;;;;;;19.23;3.85;;;;;;;6.03;97.77;101021.03;4994011;28;20472;-67
2023/01/14 06:13:24;;;;;;;26.75;3.80;;;;;;;6.06;96.93;101017.63;4994467;28;20113;-67
2023/01/14 06:15:52;;;;;;;21.85;3.40;;;;;;;6.10;96.65;101004.66;4993606;28;20066;-67
2023/01/14 06:18:22;;;;;;;18.77;3.30;;;;;;;6.11;96.68;100992.44;4994168;28;20500;-67
2023/01/14 06:20:53;;;;;;;20.80;3.80;;;;;;;6.12;96.51;100996.81;4961221;28;20034;-67
2023/01/14 06:23:20;;;;;;;24.02;3.60;;;;;;;6.13;96.66;100982.91;4976855;28;20514;-67
2023/01/14 06:25:47;;;;;;;22.45;4.32;;;;;;;6.18;96.95;100976.94;4994139;28;20030;-67
2023/01/14 06:28:14;;;;;;;22.73;3.80;;;;;;;6.22;96.62;100977.91;4976683;28;20076;-67
2023/01/14 06:30:40;;;;;;;21.58;3.78;;;;;;;6.22;96.42;100968.31;4994067;28;20034;-67
2023/01/14 06:33:06;;;;;;;19.60;3.97;;;;;;;6.22;97.11;100963.06;4993808;28;20026;-67
2023/01/14 06:35:33;;;;;;;16.23;3.30;;;;;;;6.23;97.89;100956.97;4993743;28;20015;-67
2023/01/14 06:37:58;;;;;;;22.80;4.07;;;;;;;6.28;97.46;100942.25;4993683;28;20073;-67
2023/01/14 06:40:23;;;;;;;22.10;3.70;;;;;;;6.26;97.85;100959.69;4993759;28;20476;-67
2023/01/14 06:42:52;;;;;;;18.50;3.67;;;;;;;6.26;98.28;100938.69;4993809;28;20499;-67
2023/01/14 06:45:18;;;;;;;17.85;3.63;;;;;;;6.23;98.07;100928.09;4993854;28;20105;-68
2023/01/14 06:47:43;;;;;;;19.83;3.63;;;;;;;6.25;98.60;100922.88;4993686;28;20165;-68
2023/01/14 06:50:09;;;;;;;16.77;3.03;;;;;;;6.26;98.54;100922.97;4993742;28;20029;-68
2023/01/14 06:52:35;;;;;;;21.92;3.80;;;;;;;6.25;98.81;100909.78;4993905;28;20113;-67
2023/01/14 06:55:00;;;;;;;18.85;3.83;;;;;;;6.26;99.29;100914.19;4993654;28;20122;-68
2023/01/14 06:57:26;;;;;;;13.43;3.13;;;;;;;6.26;99.85;100906.31;4993784;28;20026;-68
2023/01/14 06:59:53;;;;;;;15.52;3.20;;;;;;;6.23;100.00;100901.88;4993648;28;20026;-68
2023/01/14 07:02:18;;;;;;;18.88;3.55;;;;;;;6.24;100.00;100902.75;4993280;28;20069;-68
2023/01/14 07:04:44;;;;;;;23.73;3.72;;;;;;;6.21;100.00;100884.28;4993776;28;20108;-68
2023/01/14 07:07:10;;;;;;;17.10;3.42;;;;;;;6.21;100.00;100876.41;4993629;28;20034;-69
2023/01/14 07:09:36;;;;;;;21.70;3.45;;;;;;;6.20;100.00;100883.41;4993282;28;20493;-68
2023/01/14 07:12:01;;;;;;;16.75;3.47;;;;;;;6.20;100.00;100862.41;4993423;28;20054;-68
2023/01/14 07:14:27;;;;;;;13.07;3.20;;;;;;;6.19;100.00;100859.75;4993589;28;20054;-68
2023/01/14 07:16:53;;;;;;;21.05;3.53;;;;;;;6.19;100.00;100851.88;4993771;28;20154;-68
2023/01/14 07:19:18;;;;;;;19.20;3.47;;;;;;;6.21;100.00;100847.56;4993736;28;20097;-68
2023/01/14 07:21:43;;;;;;;19.25;4.18;;;;;;;6.20;100.00;100836.16;4993445;28;20030;-68
2023/01/14 07:24:10;;;;;;;21.23;3.83;;;;;;;6.17;100.00;100820.38;4993502;28;20030;-68
2023/01/14 07:26:35;;;;;;;18.85;3.30;;;;;;;6.19;100.00;100816.03;4976030;28;20118;-68
2023/01/14 07:29:01;;;;;;;16.67;3.20;;;;;;;6.22;100.00;100815.25;4997308;28;20110;-68
2023/01/14 07:31:26;;;;;;;21.23;3.30;;;;;;;6.22;100.00;100810.00;4997396;28;20388;-68
2023/01/14 07:33:52;;;;;;;15.15;3.10;;;;;;;6.19;100.00;100805.53;4997260;28;20105;-68
2023/01/14 07:36:17;;;;;;;16.58;3.90;;;;;;;6.22;100.00;100815.25;4997312;28;20068;-68
2023/01/14 07:38:42;;;;;;;19.67;3.35;;;;;;;6.21;100.00;100802.94;5010181;28;20068;-69
2023/01/14 07:41:09;;;;;;;17.75;3.47;;;;;;;6.20;100.00;100804.69;5016556;28;20044;-68
2023/01/14 07:43:35;;;;;;;10.77;2.90;;;;;;;6.22;100.00;100792.53;5016673;28;20073;-68
2023/01/14 07:46:00;;;;;;;16.00;3.47;;;;;;;6.23;100.00;100780.28;5016825;28;20495;-68
2023/01/14 07:48:27;;;;;;;10.82;3.15;;;;;;;6.20;100.00;100781.06;5016638;28;20033;-68
2023/01/14 07:50:52;;;;;;;14.30;3.58;;;;;;;6.21;100.00;100761.88;5016619;28;20155;-68
2023/01/14 07:53:17;;;;;;;16.75;2.90;;;;;;;6.19;100.00;100749.56;5016399;28;20033;-68
2023/01/14 07:55:43;;;;;;;13.18;2.97;;;;;;;6.23;100.00;100741.81;5016511;28;20026;-68
2023/01/14 07:58:10;;;;;;;11.77;3.08;;;;;;;6.27;100.00;100742.78;5016458;28;20117;-69
2023/01/14 08:00:36;;;;;;;16.52;3.65;;;;;;;6.33;100.00;100723.69;5016349;28;20030;-67
2023/01/14 08:03:01;;;;;;;15.10;3.47;;;;;;;6.33;100.00;100719.31;5016461;28;20036;-68
2023/01/14 08:05:26;;;;;;;14.43;3.28;;;;;;;6.33;100.00;100708.81;5016272;28;20483;-68
2023/01/14 08:07:53;;;;;;;13.15;2.90;;;;;;;6.36;100.00;100701.03;5016265;28;20081;-68
2023/01/14 08:10:19;;;;;;;10.95;2.80;;;;;;;6.36;100.00;100693.16;5015990;28;20036;-68
2023/01/14 08:12:44;;;;;;;11.77;3.00;;;;;;;6.41;100.00;100686.28;5016101;28;20034;-68
2023/01/14 08:15:11;;;;;;;12.70;3.08;;;;;;;6.39;100.00;100677.50;5016090;28;20038;-68
2023/01/14 08:17:37;;;;;;;10.07;2.95;;;;;;;6.46;100.00;100682.03;5016016;28;20052;-68
2023/01/14 08:20:03;;;;;;;10.55;2.67;;;;;;;6.46;100.00;100654.91;5016308;28;20465;-68
2023/01/14 08:22:29;;;;;;;9.40;2.90;;;;;;;6.48;100.00;100650.59;5016201;28;20476;-68
2023/01/14 08:24:56;;;;;;;8.90;2.65;;;;;;;6.49;100.00;100655.88;5015791;28;20491;-68
2023/01/14 08:27:21;;;;;;;12.18;2.80;;;;;;;6.55;100.00;100643.72;5015964;28;20030;-69
2023/01/14 08:29:46;;;;;;;9.25;2.65;;;;;;;6.57;100.00;100624.56;5015944;28;20033;-68
2023/01/14 08:32:13;;;;;;;8.43;2.67;;;;;;;6.60;100.00;100627.25;5015751;28;20567;-68
2023/01/14 08:34:39;;;;;;;8.52;2.60;;;;;;;6.62;100.00;100622.03;5015800;28;20153;-68
2023/01/14 08:37:04;;;;;;;9.68;2.40;;;;;;;6.65;100.00;100607.25;5015750;28;20030;-68
2023/01/14 08:39:29;;;;;;;5.97;2.47;;;;;;;6.71;100.00;100606.47;5014872;28;20522;-68
2023/01/14 08:41:56;;;;;;;9.80;2.67;;;;;;;6.72;100.00;100584.63;5015355;28;20479;-68
2023/01/14 08:44:21;;;;;;;10.38;2.75;;;;;;;6.73;100.00;100589.94;5015556;28;20041;-68
2023/01/14 08:46:47;;;;;;;3.85;2.03;;;;;;;6.74;100.00;100582.94;4997970;28;20395;-68
2023/01/14 08:49:12;;;;;;;7.15;2.08;;;;;;;6.78;100.00;100585.66;5015394;28;20030;-69
2023/01/14 08:51:38;;;;;;;10.52;2.50;;;;;;;6.81;100.00;100569.09;5015584;28;20037;-68
2023/01/14 08:54:04;;;;;;;7.85;2.17;;;;;;;6.85;100.00;100556.88;4998017;28;20038;-69
2023/01/14 08:56:29;;;;;;;7.60;2.47;;;;;;;6.91;100.00;100547.41;5015627;28;20022;-68
2023/01/14 08:58:55;;;;;;;6.55;2.30;;;;;;;6.92;100.00;100548.28;5015279;28;20042;-69
2023/01/14 09:01:20;;;;;;;4.65;2.10;;;;;;;6.93;100.00;100535.19;5015208;28;20514;-68
2023/01/14 09:03:46;;;;;;;4.40;2.20;;;;;;;6.97;100.00;100510.75;5015148;28;20026;-69
2023/01/14 09:06:13;;;;;;;10.35;2.20;;;;;;;7.01;100.00;100506.44;5015109;28;20026;-69
2023/01/14 09:17:11;;;;;;;7.13;2.25;;;;;;;7.11;100.00;100484.78;5015366;28;20041;-68
2023/01/14 09:19:45;;;;;;;10.13;2.30;;;;;;;7.14;100.00;100476.03;5014993;28;20034;-68
2023/01/14 09:22:15;;;;;;;8.18;2.35;;;;;;;7.17;100.00;100484.88;5014888;28;20117;-68
2023/01/14 09:24:41;;;;;;;6.43;2.20;;;;;;;7.19;100.00;100470.00;5014762;28;20080;-68
2023/01/14 09:27:06;;;;;;;11.43;2.55;;;;;;;7.21;100.00;100468.31;5014732;28;20431;-68
2023/01/14 09:29:32;;;;;;;7.53;2.47;;;;;;;7.21;100.00;100454.28;5014925;28;20026;-68
2023/01/14 09:31:57;;;;;;;7.63;2.50;;;;;;;7.24;100.00;100446.47;5014608;28;20030;-68
2023/01/14 09:34:23;;;;;;;10.73;2.40;;;;;;;7.24;100.00;100443.84;5014409;28;20030;-68
2023/01/14 09:36:49;;;;;;;6.55;2.30;;;;;;;7.25;100.00;100440.34;5014601;28;20026;-67
2023/01/14 09:39:15;;;;;;;5.80;2.13;;;;;;;7.27;100.00;100426.34;5014412;28;20046;-68
2023/01/14 09:41:53;;;;;;;11.38;2.58;;;;;;;7.30;100.00;100422.03;5014276;28;20041;-68
2023/01/14 09:44:20;;;;;;;8.40;2.72;;;;;;;7.30;100.00;100407.13;5014401;28;20022;-68
2023/01/14 09:46:45;;;;;;;6.32;2.13;;;;;;;7.32;100.00;100408.03;5014390;28;20026;-68
2023/01/14 09:49:17;;;;;;;12.13;2.60;;;;;;;7.33;100.00;100401.06;4996848;28;20494;-68
2023/01/14 09:51:57;;;;;;;9.77;2.30;;;;;;;7.37;100.00;100395.00;5013360;28;20026;-68
2023/01/14 09:54:29;;;;;;;9.60;2.80;;;;;;;7.38;100.00;100397.63;5014251;28;20386;-68
2023/01/14 09:57:07;;;;;;;7.75;2.40;;;;;;;7.39;100.00;100386.25;5014223;28;20379;-69
2023/01/14 09:59:57;;;;;;;9.48;2.63;;;;;;;7.44;100.00;100384.59;5014235;28;20030;-68
2023/01/14 10:02:29;;;;;;;8.23;2.30;;;;;;;7.48;100.00;100370.63;5014420;28;20120;-68
2023/01/14 10:05:10;;;;;;;7.70;2.40;;;;;;;7.53;100.00;100378.59;5014200;28;20026;-68
2023/01/14 10:07:35;;;;;;;9.38;2.47;;;;;;;7.53;100.00;100357.56;5014066;28;20464;-68
2023/01/14 10:10:03;;;;;;;11.07;2.67;;;;;;;7.57;100.00;100350.59;5013732;28;20030;-68
2023/01/14 10:12:42;;;;;;;7.75;2.47;;;;;;;7.65;100.00;100348.97;5013877;28;20076;-69
2023/01/14 10:15:19;;;;;;;7.93;2.20;;;;;;;7.64;100.00;100345.47;5013923;28;20450;-68
2023/01/14 10:17:51;;;;;;;9.95;2.47;;;;;;;7.68;100.00;100309.56;5013889;28;20029;-68
2023/01/14 10:20:44;;;;;;;7.50;2.40;;;;;;;7.70;100.00;100331.50;5014086;28;20091;-67
2023/01/14 10:23:14;;;;;;;6.43;2.28;;;;;;;7.77;100.00;100305.31;5003062;28;20113;-68
2023/01/14 10:25:46;;;;;;;8.38;2.20;;;;;;;7.69;100.00;100285.91;5013734;28;20084;-67
2023/01/14 10:28:15;;;;;;;8.65;2.50;;;;;;;7.82;100.00;100284.34;5013706;28;20054;-68
2023/01/14 10:30:42;;;;;;;9.82;2.40;;;;;;;7.87;100.00;100279.13;5013619;28;20062;-68
2023/01/14 10:33:13;;;;;;;9.85;2.38;;;;;;;7.93;100.00;100258.19;5013471;28;20033;-67
2023/01/14 10:35:42;;;;;;;9.60;2.60;;;;;;;7.94;100.00;100268.72;5013594;28;20092;-69
2023/01/14 10:38:15;;;;;;;9.48;2.92;;;;;;;8.01;100.00;100270.56;5013379;28;20408;-66
2023/01/14 10:40:40;;;;;;;;;;;;;;;8.09;100.00;100275.00;5013702;28;20030;-67
2023/01/14 10:43:31;;;;;;;13.15;2.60;;;;;;;8.09;100.00;100248.69;5013484;28;19924;-68
2023/01/14 10:45:56;;;;;;;6.15;2.10;;;;;;;8.11;100.00;100234.69;5012595;28;20484;-68
2023/01/14 10:48:25;;;;;;;5.35;2.10;;;;;;;8.14;100.00;100231.22;5013589;28;20022;-67
2023/01/14 10:50:51;;;;;;;9.98;2.38;;;;;;;8.18;100.00;100214.56;5013561;28;20105;-67
2023/01/14 10:53:19;;;;;;;7.22;2.30;;;;;;;8.18;100.00;100197.06;5013136;28;20109;-67
2023/01/14 10:55:58;;;;;;;7.93;2.30;;;;;;;8.16;100.00;100190.88;5013152;28;20018;-67
2023/01/14 10:58:44;;;;;;;6.70;2.35;;;;;;;8.25;100.00;100206.75;5013146;28;20491;-67
2023/01/14 11:01:11;;;;;;;7.55;2.20;;;;;;;8.23;100.00;100183.94;4995528;28;20030;-70
2023/01/14 11:03:57;;;;;;;6.68;1.90;;;;;;;8.25;100.00;100190.09;4995216;28;20038;-68
2023/01/14 11:06:29;;;;;;;4.32;1.98;;;;;;;8.32;100.00;100181.41;5012864;28;20042;-70
2023/01/14 11:08:55;;;;;;;8.27;2.10;;;;;;;8.38;100.00;100167.44;5013086;28;20030;-68
2023/01/14 11:11:24;;;;;;;7.65;2.03;;;;;;;8.40;100.00;100160.44;5012728;28;20132;-68
2023/01/14 11:13:54;;;;;;;6.55;2.08;;;;;;;8.40;100.00;100150.78;5013076;28;20415;-67
2023/01/14 11:16:25;;;;;;;5.97;2.00;;;;;;;8.45;100.00;100158.72;5013273;28;20108;-68
2023/01/14 11:19:02;;;;;;;3.13;1.70;;;;;;;8.46;100.00;100149.94;5012986;28;20084;-68
2023/01/14 11:21:34;;;;;;;5.35;2.00;;;;;;;8.57;100.00;100135.13;5013257;28;20022;-68
2023/01/14 11:24:35;;;;;;;4.05;2.00;;;;;;;8.53;100.00;100134.22;5012990;28;20488;-68
2023/01/14 11:27:06;;;;;;;6.72;1.80;;;;;;;8.59;100.00;100112.31;4999612;28;20049;-67
2023/01/14 11:29:41;;;;;;;4.35;1.80;;;;;;;8.59;100.00;100112.31;5012824;28;20026;-67
2023/01/14 11:32:12;;;;;;;6.00;2.10;;;;;;;8.59;100.00;100109.66;5012835;28;20030;-67
2023/01/14 11:34:53;;;;;;;4.07;1.80;;;;;;;8.60;100.00;100084.22;5006656;28;20454;-66
2023/01/14 11:37:21;;;;;;;4.05;1.70;;;;;;;8.66;100.00;100094.81;5001729;28;20345;-66
2023/01/14 11:39:58;;;;;;;4.53;2.00;;;;;;;8.67;100.00;100075.50;4996303;28;20125;-67
2023/01/14 11:42:26;;;;;;;4.32;2.08;;;;;;;8.69;100.00;100068.47;4993150;28;20039;-69
2023/01/14 11:45:09;;;;;;;5.72;2.10;;;;;;;8.68;100.00;100075.50;4993131;28;20034;-66
2023/01/14 11:47:45;;;;;;;4.75;1.90;;;;;;;8.67;100.00;100076.38;4993240;28;20030;-68
2023/01/14 11:50:19;;;;;;;3.05;1.80;;;;;;;8.72;100.00;100074.63;4993151;28;20030;-67
2023/01/14 11:53:06;;;;;;;3.40;1.60;;;;;;;8.73;100.00;100059.72;4993108;28;20030;-67
2023/01/14 11:55:38;;;;;;;5.57;2.03;;;;;;;8.73;100.00;100070.25;4993099;28;20106;-68
2023/01/14 11:58:25;;;;;;;4.35;2.17;;;;;;;8.75;100.00;100031.66;4993342;28;20034;-68
2023/01/14 12:01:04;;;;;;;5.40;1.63;;;;;;;8.79;100.00;100043.97;4993291;28;20030;-67
2023/01/14 12:03:39;;;;;;;4.00;1.70;;;;;;;8.78;100.00;100029.03;4993047;28;20031;-68